Terminal Aerodrome Forecast
Issued by NWS Wilmington, NC

Home | Current Version | Previous Version | Text Only | Print | Product List | Glossary On
Versions: 1 2 3 4 5 6 7 8 9 10 11 12 13 14 15 16 17 18 19 20 21 22
465
FTUS42 KILM 091720
TAFILM
TAF
KILM 091720Z 0918/1018 25016G26KT P6SM BKN045 BKN100
     FM100100 25011KT P6SM BKN045 BKN100
     FM100900 26008KT P6SM SCT100
     FM101500 27012KT P6SM SCT050 SCT100=

USA.gov is the U.S. government's official web portal to all federal, state and local government web resources and services.